sensor_id;sensor_type;location;lat;lon;timestamp;P1;durP1;ratioP1;P2;durP2;ratioP2
65583;SDS011;62116;43.582;1.470;2023-04-01T00:01:03;21.30;;;2.90;;
65583;SDS011;62116;43.582;1.470;2023-04-01T00:03:29;22.75;;;3.10;;
65583;SDS011;62116;43.582;1.470;2023-04-01T00:05:56;20.30;;;3.25;;
65583;SDS011;62116;43.582;1.470;2023-04-01T00:08:23;19.77;;;3.10;;
65583;SDS011;62116;43.582;1.470;2023-04-01T00:10:50;20.73;;;3.20;;
65583;SDS011;62116;43.582;1.470;2023-04-01T00:13:15;19.98;;;3.30;;
65583;SDS011;62116;43.582;1.470;2023-04-01T00:15:41;20.05;;;2.90;;
65583;SDS011;62116;43.582;1.470;2023-04-01T00:18:07;22.45;;;3.50;;
65583;SDS011;62116;43.582;1.470;2023-04-01T00:20:33;26.83;;;3.38;;
65583;SDS011;62116;43.582;1.470;2023-04-01T00:22:59;26.17;;;3.63;;
65583;SDS011;62116;43.582;1.470;2023-04-01T00:25:24;27.02;;;3.30;;
65583;SDS011;62116;43.582;1.470;2023-04-01T00:27:50;22.80;;;3.60;;
65583;SDS011;62116;43.582;1.470;2023-04-01T00:30:15;22.30;;;3.47;;
65583;SDS011;62116;43.582;1.470;2023-04-01T00:32:41;27.77;;;3.72;;
65583;SDS011;62116;43.582;1.470;2023-04-01T00:35:07;26.40;;;3.42;;
65583;SDS011;62116;43.582;1.470;2023-04-01T00:37:34;27.30;;;3.38;;
65583;SDS011;62116;43.582;1.470;2023-04-01T00:40:02;25.13;;;3.20;;
65583;SDS011;62116;43.582;1.470;2023-04-01T00:42:29;23.77;;;3.42;;
65583;SDS011;62116;43.582;1.470;2023-04-01T00:44:54;26.95;;;3.33;;
65583;SDS011;62116;43.582;1.470;2023-04-01T00:47:20;19.50;;;3.13;;
65583;SDS011;62116;43.582;1.470;2023-04-01T00:49:48;20.35;;;3.90;;
65583;SDS011;62116;43.582;1.470;2023-04-01T00:52:17;18.77;;;3.25;;
65583;SDS011;62116;43.582;1.470;2023-04-01T00:54:46;25.67;;;3.55;;
65583;SDS011;62116;43.582;1.470;2023-04-01T00:57:17;23.55;;;3.10;;
65583;SDS011;62116;43.582;1.470;2023-04-01T00:59:47;20.83;;;3.45;;
65583;SDS011;62116;43.582;1.470;2023-04-01T01:02:17;21.17;;;2.95;;
65583;SDS011;62116;43.582;1.470;2023-04-01T01:04:43;18.80;;;2.80;;
65583;SDS011;62116;43.582;1.470;2023-04-01T01:15:48;24.08;;;3.22;;
65583;SDS011;62116;43.582;1.470;2023-04-01T01:29:40;24.40;;;3.28;;
65583;SDS011;62116;43.582;1.470;2023-04-01T01:37:45;23.60;;;3.10;;
65583;SDS011;62116;43.582;1.470;2023-04-01T01:40:12;21.05;;;3.20;;
65583;SDS011;62116;43.582;1.470;2023-04-01T01:42:40;30.85;;;3.35;;
65583;SDS011;62116;43.582;1.470;2023-04-01T01:45:09;23.15;;;2.88;;
65583;SDS011;62116;43.582;1.470;2023-04-01T01:47:36;25.38;;;3.42;;
65583;SDS011;62116;43.582;1.470;2023-04-01T01:50:02;19.80;;;3.15;;
65583;SDS011;62116;43.582;1.470;2023-04-01T01:52:29;18.88;;;2.67;;
65583;SDS011;62116;43.582;1.470;2023-04-01T01:54:55;24.38;;;3.00;;
65583;SDS011;62116;43.582;1.470;2023-04-01T01:57:23;25.02;;;3.10;;
65583;SDS011;62116;43.582;1.470;2023-04-01T02:02:22;23.40;;;3.28;;
65583;SDS011;62116;43.582;1.470;2023-04-01T02:04:48;26.15;;;3.00;;
65583;SDS011;62116;43.582;1.470;2023-04-01T02:07:16;25.67;;;3.55;;
65583;SDS011;62116;43.582;1.470;2023-04-01T02:09:47;20.98;;;2.92;;
65583;SDS011;62116;43.582;1.470;2023-04-01T02:12:13;20.48;;;3.28;;
65583;SDS011;62116;43.582;1.470;2023-04-01T02:15:01;27.02;;;4.03;;
65583;SDS011;62116;43.582;1.470;2023-04-01T02:17:33;21.55;;;3.20;;
65583;SDS011;62116;43.582;1.470;2023-04-01T02:20:03;27.13;;;3.05;;
65583;SDS011;62116;43.582;1.470;2023-04-01T02:22:37;19.05;;;3.05;;
65583;SDS011;62116;43.582;1.470;2023-04-01T02:25:17;25.50;;;3.42;;
65583;SDS011;62116;43.582;1.470;2023-04-01T02:27:47;33.53;;;4.55;;
65583;SDS011;62116;43.582;1.470;2023-04-01T02:30:14;19.65;;;2.85;;
65583;SDS011;62116;43.582;1.470;2023-04-01T02:32:41;22.35;;;2.70;;
65583;SDS011;62116;43.582;1.470;2023-04-01T02:35:11;24.33;;;3.60;;
65583;SDS011;62116;43.582;1.470;2023-04-01T02:40:07;24.95;;;3.70;;
65583;SDS011;62116;43.582;1.470;2023-04-01T02:42:35;22.55;;;3.20;;
65583;SDS011;62116;43.582;1.470;2023-04-01T02:45:01;19.10;;;2.72;;
65583;SDS011;62116;43.582;1.470;2023-04-01T02:47:27;24.48;;;3.33;;
65583;SDS011;62116;43.582;1.470;2023-04-01T02:49:53;19.60;;;2.97;;
65583;SDS011;62116;43.582;1.470;2023-04-01T02:52:23;24.67;;;3.30;;
65583;SDS011;62116;43.582;1.470;2023-04-01T02:54:51;21.38;;;3.33;;
65583;SDS011;62116;43.582;1.470;2023-04-01T02:57:17;20.25;;;3.25;;
65583;SDS011;62116;43.582;1.470;2023-04-01T02:59:42;23.55;;;3.25;;
65583;SDS011;62116;43.582;1.470;2023-04-01T03:02:08;20.05;;;3.20;;
65583;SDS011;62116;43.582;1.470;2023-04-01T03:04:33;22.63;;;2.95;;
65583;SDS011;62116;43.582;1.470;2023-04-01T03:06:58;21.00;;;3.28;;
65583;SDS011;62116;43.582;1.470;2023-04-01T03:09:24;23.30;;;2.95;;
65583;SDS011;62116;43.582;1.470;2023-04-01T03:11:49;25.27;;;3.75;;
65583;SDS011;62116;43.582;1.470;2023-04-01T03:14:15;24.50;;;3.47;;
65583;SDS011;62116;43.582;1.470;2023-04-01T03:16:40;24.52;;;3.47;;
65583;SDS011;62116;43.582;1.470;2023-04-01T03:19:05;30.48;;;3.60;;
65583;SDS011;62116;43.582;1.470;2023-04-01T03:21:31;22.33;;;2.80;;
65583;SDS011;62116;43.582;1.470;2023-04-01T03:23:56;21.35;;;3.10;;
65583;SDS011;62116;43.582;1.470;2023-04-01T03:26:21;26.40;;;3.95;;
65583;SDS011;62116;43.582;1.470;2023-04-01T03:28:47;24.83;;;3.42;;
65583;SDS011;62116;43.582;1.470;2023-04-01T03:31:13;24.42;;;3.22;;
65583;SDS011;62116;43.582;1.470;2023-04-01T03:33:39;23.20;;;3.28;;
65583;SDS011;62116;43.582;1.470;2023-04-01T03:36:05;27.38;;;3.30;;
65583;SDS011;62116;43.582;1.470;2023-04-01T03:38:32;22.42;;;3.45;;
65583;SDS011;62116;43.582;1.470;2023-04-01T03:40:58;25.08;;;3.25;;
65583;SDS011;62116;43.582;1.470;2023-04-01T03:43:24;26.08;;;3.35;;
65583;SDS011;62116;43.582;1.470;2023-04-01T03:45:50;23.77;;;3.33;;
65583;SDS011;62116;43.582;1.470;2023-04-01T03:48:15;22.70;;;2.70;;
65583;SDS011;62116;43.582;1.470;2023-04-01T03:50:41;28.65;;;3.42;;
65583;SDS011;62116;43.582;1.470;2023-04-01T03:53:07;20.08;;;3.42;;
65583;SDS011;62116;43.582;1.470;2023-04-01T03:55:33;26.35;;;3.30;;
65583;SDS011;62116;43.582;1.470;2023-04-01T03:58:00;23.73;;;3.67;;
65583;SDS011;62116;43.582;1.470;2023-04-01T04:00:27;21.23;;;3.60;;
65583;SDS011;62116;43.582;1.470;2023-04-01T04:02:53;23.98;;;2.65;;
65583;SDS011;62116;43.582;1.470;2023-04-01T04:05:20;30.40;;;3.47;;
65583;SDS011;62116;43.582;1.470;2023-04-01T04:07:46;21.10;;;3.13;;
65583;SDS011;62116;43.582;1.470;2023-04-01T04:10:11;19.85;;;3.05;;
65583;SDS011;62116;43.582;1.470;2023-04-01T04:12:36;24.02;;;2.80;;
65583;SDS011;62116;43.582;1.470;2023-04-01T04:15:02;24.70;;;3.20;;
65583;SDS011;62116;43.582;1.470;2023-04-01T04:17:28;23.98;;;3.30;;
65583;SDS011;62116;43.582;1.470;2023-04-01T04:19:53;22.92;;;3.35;;
65583;SDS011;62116;43.582;1.470;2023-04-01T04:22:18;23.70;;;3.42;;
65583;SDS011;62116;43.582;1.470;2023-04-01T04:24:44;27.58;;;3.03;;
65583;SDS011;62116;43.582;1.470;2023-04-01T04:27:09;24.65;;;3.25;;
65583;SDS011;62116;43.582;1.470;2023-04-01T04:29:34;25.20;;;3.50;;
65583;SDS011;62116;43.582;1.470;2023-04-01T04:32:00;24.73;;;3.72;;
65583;SDS011;62116;43.582;1.470;2023-04-01T04:34:25;22.38;;;3.10;;
65583;SDS011;62116;43.582;1.470;2023-04-01T04:36:51;24.83;;;3.10;;
65583;SDS011;62116;43.582;1.470;2023-04-01T04:39:16;21.27;;;2.60;;
65583;SDS011;62116;43.582;1.470;2023-04-01T04:41:42;23.10;;;2.65;;
65583;SDS011;62116;43.582;1.470;2023-04-01T04:44:07;21.52;;;3.10;;
65583;SDS011;62116;43.582;1.470;2023-04-01T04:46:33;21.90;;;3.13;;
65583;SDS011;62116;43.582;1.470;2023-04-01T04:48:58;22.92;;;2.88;;
65583;SDS011;62116;43.582;1.470;2023-04-01T04:51:24;18.77;;;2.85;;
65583;SDS011;62116;43.582;1.470;2023-04-01T04:53:50;26.23;;;3.35;;
65583;SDS011;62116;43.582;1.470;2023-04-01T04:56:19;26.90;;;4.00;;
65583;SDS011;62116;43.582;1.470;2023-04-01T04:58:46;27.27;;;3.33;;
65583;SDS011;62116;43.582;1.470;2023-04-01T05:01:12;23.17;;;2.95;;
65583;SDS011;62116;43.582;1.470;2023-04-01T05:03:39;24.88;;;3.33;;
65583;SDS011;62116;43.582;1.470;2023-04-01T05:06:05;25.13;;;2.92;;
65583;SDS011;62116;43.582;1.470;2023-04-01T05:08:32;26.15;;;3.08;;
65583;SDS011;62116;43.582;1.470;2023-04-01T05:10:58;29.85;;;3.92;;
65583;SDS011;62116;43.582;1.470;2023-04-01T05:13:24;14.85;;;2.60;;
65583;SDS011;62116;43.582;1.470;2023-04-01T05:15:49;30.65;;;3.35;;
65583;SDS011;62116;43.582;1.470;2023-04-01T05:18:15;23.45;;;4.15;;
65583;SDS011;62116;43.582;1.470;2023-04-01T05:20:45;19.52;;;2.60;;
65583;SDS011;62116;43.582;1.470;2023-04-01T05:23:12;19.95;;;3.08;;
65583;SDS011;62116;43.582;1.470;2023-04-01T05:25:38;26.40;;;3.20;;
65583;SDS011;62116;43.582;1.470;2023-04-01T05:28:03;22.00;;;2.95;;
65583;SDS011;62116;43.582;1.470;2023-04-01T05:30:28;27.20;;;3.65;;
65583;SDS011;62116;43.582;1.470;2023-04-01T05:32:54;24.63;;;3.15;;
65583;SDS011;62116;43.582;1.470;2023-04-01T05:35:19;20.48;;;2.63;;
65583;SDS011;62116;43.582;1.470;2023-04-01T05:37:45;24.23;;;3.45;;
65583;SDS011;62116;43.582;1.470;2023-04-01T05:40:10;22.10;;;3.20;;
65583;SDS011;62116;43.582;1.470;2023-04-01T05:42:36;17.60;;;2.90;;
65583;SDS011;62116;43.582;1.470;2023-04-01T05:45:02;24.30;;;2.88;;
65583;SDS011;62116;43.582;1.470;2023-04-01T05:47:27;32.22;;;3.90;;
65583;SDS011;62116;43.582;1.470;2023-04-01T05:49:52;23.50;;;3.20;;
65583;SDS011;62116;43.582;1.470;2023-04-01T05:52:18;26.33;;;3.40;;
65583;SDS011;62116;43.582;1.470;2023-04-01T05:54:43;25.73;;;3.25;;
65583;SDS011;62116;43.582;1.470;2023-04-01T05:57:08;29.52;;;3.88;;
65583;SDS011;62116;43.582;1.470;2023-04-01T05:59:34;18.98;;;2.97;;
65583;SDS011;62116;43.582;1.470;2023-04-01T06:02:00;26.38;;;3.15;;
65583;SDS011;62116;43.582;1.470;2023-04-01T06:04:26;17.83;;;2.92;;
65583;SDS011;62116;43.582;1.470;2023-04-01T06:06:57;23.08;;;3.00;;
65583;SDS011;62116;43.582;1.470;2023-04-01T06:09:27;27.05;;;3.30;;
65583;SDS011;62116;43.582;1.470;2023-04-01T06:12:29;25.08;;;3.35;;
65583;SDS011;62116;43.582;1.470;2023-04-01T06:31:24;22.25;;;3.35;;
65583;SDS011;62116;43.582;1.470;2023-04-01T06:40:19;22.30;;;3.03;;
65583;SDS011;62116;43.582;1.470;2023-04-01T06:50:29;23.75;;;3.15;;
65583;SDS011;62116;43.582;1.470;2023-04-01T06:53:12;17.30;;;2.63;;
65583;SDS011;62116;43.582;1.470;2023-04-01T06:55:42;23.98;;;3.10;;
65583;SDS011;62116;43.582;1.470;2023-04-01T06:58:44;23.10;;;3.30;;
65583;SDS011;62116;43.582;1.470;2023-04-01T07:01:25;20.27;;;2.63;;
65583;SDS011;62116;43.582;1.470;2023-04-01T07:06:38;27.17;;;3.28;;
65583;SDS011;62116;43.582;1.470;2023-04-01T07:09:10;22.30;;;3.08;;
65583;SDS011;62116;43.582;1.470;2023-04-01T07:14:19;22.80;;;3.22;;
65583;SDS011;62116;43.582;1.470;2023-04-01T07:19:25;23.73;;;3.38;;
65583;SDS011;62116;43.582;1.470;2023-04-01T07:21:58;23.85;;;2.90;;
65583;SDS011;62116;43.582;1.470;2023-04-01T07:24:34;18.67;;;3.22;;
65583;SDS011;62116;43.582;1.470;2023-04-01T07:27:05;24.77;;;2.72;;
65583;SDS011;62116;43.582;1.470;2023-04-01T07:29:34;20.70;;;3.03;;
65583;SDS011;62116;43.582;1.470;2023-04-01T07:39:59;20.92;;;2.90;;
65583;SDS011;62116;43.582;1.470;2023-04-01T07:42:53;23.23;;;3.00;;
65583;SDS011;62116;43.582;1.470;2023-04-01T07:48:29;22.52;;;2.75;;
65583;SDS011;62116;43.582;1.470;2023-04-01T07:51:02;22.27;;;3.00;;
65583;SDS011;62116;43.582;1.470;2023-04-01T07:53:42;19.80;;;3.17;;
65583;SDS011;62116;43.582;1.470;2023-04-01T07:58:58;25.92;;;3.35;;
65583;SDS011;62116;43.582;1.470;2023-04-01T08:01:40;23.13;;;3.15;;
65583;SDS011;62116;43.582;1.470;2023-04-01T08:07:53;28.60;;;3.63;;
65583;SDS011;62116;43.582;1.470;2023-04-01T08:15:21;27.95;;;3.33;;
65583;SDS011;62116;43.582;1.470;2023-04-01T08:21:21;24.60;;;3.10;;
65583;SDS011;62116;43.582;1.470;2023-04-01T08:23:40;23.23;;;3.03;;
65583;SDS011;62116;43.582;1.470;2023-04-01T08:29:16;18.88;;;3.03;;
65583;SDS011;62116;43.582;1.470;2023-04-01T08:31:50;23.70;;;3.25;;
65583;SDS011;62116;43.582;1.470;2023-04-01T08:34:24;20.08;;;2.55;;
65583;SDS011;62116;43.582;1.470;2023-04-01T08:37:04;25.77;;;3.22;;
65583;SDS011;62116;43.582;1.470;2023-04-01T08:39:36;17.83;;;3.00;;
65583;SDS011;62116;43.582;1.470;2023-04-01T08:56:18;18.42;;;2.92;;
65583;SDS011;62116;43.582;1.470;2023-04-01T09:28:52;11.77;;;1.70;;
65583;SDS011;62116;43.582;1.470;2023-04-01T09:36:51;9.32;;;1.60;;
65583;SDS011;62116;43.582;1.470;2023-04-01T09:39:36;8.82;;;1.55;;
65583;SDS011;62116;43.582;1.470;2023-04-01T09:42:15;6.45;;;1.45;;
65583;SDS011;62116;43.582;1.470;2023-04-01T10:07:44;10.65;;;1.70;;
65583;SDS011;62116;43.582;1.470;2023-04-01T10:10:25;9.77;;;1.90;;
65583;SDS011;62116;43.582;1.470;2023-04-01T10:27:02;7.20;;;1.50;;
65583;SDS011;62116;43.582;1.470;2023-04-01T10:35:07;9.57;;;1.85;;
65583;SDS011;62116;43.582;1.470;2023-04-01T10:40:44;9.68;;;1.73;;
65583;SDS011;62116;43.582;1.470;2023-04-01T10:53:43;11.02;;;1.98;;
65583;SDS011;62116;43.582;1.470;2023-04-01T10:59:32;9.18;;;1.67;;
65583;SDS011;62116;43.582;1.470;2023-04-01T11:24:35;13.20;;;2.10;;
65583;SDS011;62116;43.582;1.470;2023-04-01T11:27:15;9.05;;;1.58;;
65583;SDS011;62116;43.582;1.470;2023-04-01T11:36:19;9.32;;;1.33;;
65583;SDS011;62116;43.582;1.470;2023-04-01T11:41:52;6.13;;;1.35;;
65583;SDS011;62116;43.582;1.470;2023-04-01T11:44:58;6.07;;;1.10;;
65583;SDS011;62116;43.582;1.470;2023-04-01T11:47:58;3.80;;;0.90;;
65583;SDS011;62116;43.582;1.470;2023-04-01T12:05:14;4.43;;;1.08;;
65583;SDS011;62116;43.582;1.470;2023-04-01T12:10:47;4.68;;;0.82;;
65583;SDS011;62116;43.582;1.470;2023-04-01T12:13:40;5.03;;;0.93;;
65583;SDS011;62116;43.582;1.470;2023-04-01T12:19:03;6.43;;;1.00;;
65583;SDS011;62116;43.582;1.470;2023-04-01T12:21:42;4.78;;;0.93;;
65583;SDS011;62116;43.582;1.470;2023-04-01T12:56:02;5.10;;;1.08;;
65583;SDS011;62116;43.582;1.470;2023-04-01T12:58:52;6.40;;;1.10;;
65583;SDS011;62116;43.582;1.470;2023-04-01T13:01:23;5.88;;;1.15;;
65583;SDS011;62116;43.582;1.470;2023-04-01T13:17:50;5.63;;;1.00;;
65583;SDS011;62116;43.582;1.470;2023-04-01T13:34:13;5.78;;;1.20;;
65583;SDS011;62116;43.582;1.470;2023-04-01T13:39:57;5.00;;;1.20;;
65583;SDS011;62116;43.582;1.470;2023-04-01T13:42:47;5.75;;;1.33;;
65583;SDS011;62116;43.582;1.470;2023-04-01T13:45:19;3.95;;;1.08;;
65583;SDS011;62116;43.582;1.470;2023-04-01T14:06:10;4.65;;;0.95;;
65583;SDS011;62116;43.582;1.470;2023-04-01T14:17:31;5.75;;;1.40;;
65583;SDS011;62116;43.582;1.470;2023-04-01T14:33:58;8.95;;;1.35;;
65583;SDS011;62116;43.582;1.470;2023-04-01T14:48:52;5.07;;;1.20;;
65583;SDS011;62116;43.582;1.470;2023-04-01T14:51:29;6.72;;;1.33;;
65583;SDS011;62116;43.582;1.470;2023-04-01T14:56:43;8.00;;;1.40;;
65583;SDS011;62116;43.582;1.470;2023-04-01T15:04:35;11.60;;;1.50;;
65583;SDS011;62116;43.582;1.470;2023-04-01T15:21:17;4.97;;;0.80;;
65583;SDS011;62116;43.582;1.470;2023-04-01T15:23:56;5.45;;;1.20;;
65583;SDS011;62116;43.582;1.470;2023-04-01T15:26:35;6.22;;;1.77;;
65583;SDS011;62116;43.582;1.470;2023-04-01T15:29:33;4.63;;;0.88;;
65583;SDS011;62116;43.582;1.470;2023-04-01T15:51:35;3.33;;;1.10;;
65583;SDS011;62116;43.582;1.470;2023-04-01T15:59:55;5.30;;;1.00;;
65583;SDS011;62116;43.582;1.470;2023-04-01T16:02:46;4.55;;;0.80;;
65583;SDS011;62116;43.582;1.470;2023-04-01T16:05:30;3.67;;;0.80;;
65583;SDS011;62116;43.582;1.470;2023-04-01T16:08:20;7.35;;;0.90;;
65583;SDS011;62116;43.582;1.470;2023-04-01T16:11:00;4.20;;;1.20;;
65583;SDS011;62116;43.582;1.470;2023-04-01T16:13:55;5.03;;;1.30;;
65583;SDS011;62116;43.582;1.470;2023-04-01T16:21:52;4.90;;;1.10;;
65583;SDS011;62116;43.582;1.470;2023-04-01T16:32:22;5.45;;;1.30;;
65583;SDS011;62116;43.582;1.470;2023-04-01T16:35:16;5.78;;;1.15;;
65583;SDS011;62116;43.582;1.470;2023-04-01T16:37:48;5.07;;;1.00;;
65583;SDS011;62116;43.582;1.470;2023-04-01T16:43:06;6.30;;;1.10;;
65583;SDS011;62116;43.582;1.470;2023-04-01T16:45:33;5.93;;;1.10;;
65583;SDS011;62116;43.582;1.470;2023-04-01T16:48:13;5.13;;;1.73;;
65583;SDS011;62116;43.582;1.470;2023-04-01T16:50:59;3.58;;;1.30;;
65583;SDS011;62116;43.582;1.470;2023-04-01T16:53:41;4.18;;;1.15;;
65583;SDS011;62116;43.582;1.470;2023-04-01T16:56:22;5.28;;;1.17;;
65583;SDS011;62116;43.582;1.470;2023-04-01T17:01:27;4.35;;;0.98;;
65583;SDS011;62116;43.582;1.470;2023-04-01T17:04:17;4.78;;;1.40;;
65583;SDS011;62116;43.582;1.470;2023-04-01T17:12:14;6.97;;;1.20;;
65583;SDS011;62116;43.582;1.470;2023-04-01T17:15:12;4.63;;;0.90;;
65583;SDS011;62116;43.582;1.470;2023-04-01T17:23:00;5.82;;;1.00;;
65583;SDS011;62116;43.582;1.470;2023-04-01T17:25:35;5.97;;;1.40;;
65583;SDS011;62116;43.582;1.470;2023-04-01T17:28:34;7.28;;;1.30;;
65583;SDS011;62116;43.582;1.470;2023-04-01T17:41:49;7.22;;;1.42;;
65583;SDS011;62116;43.582;1.470;2023-04-01T17:50:18;5.78;;;1.42;;
65583;SDS011;62116;43.582;1.470;2023-04-01T17:53:03;3.28;;;1.30;;
65583;SDS011;62116;43.582;1.470;2023-04-01T17:58:21;2.90;;;0.98;;
65583;SDS011;62116;43.582;1.470;2023-04-01T18:01:06;4.13;;;1.13;;
65583;SDS011;62116;43.582;1.470;2023-04-01T18:06:48;4.32;;;1.20;;
65583;SDS011;62116;43.582;1.470;2023-04-01T18:12:40;5.22;;;1.60;;
65583;SDS011;62116;43.582;1.470;2023-04-01T18:27:03;7.90;;;1.30;;
65583;SDS011;62116;43.582;1.470;2023-04-01T18:34:59;5.25;;;1.33;;
65583;SDS011;62116;43.582;1.470;2023-04-01T18:37:34;6.93;;;1.80;;
65583;SDS011;62116;43.582;1.470;2023-04-01T18:40:11;7.38;;;1.30;;
65583;SDS011;62116;43.582;1.470;2023-04-01T18:50:56;8.07;;;1.80;;
65583;SDS011;62116;43.582;1.470;2023-04-01T18:56:35;7.47;;;1.92;;
65583;SDS011;62116;43.582;1.470;2023-04-01T18:59:22;6.80;;;1.83;;
65583;SDS011;62116;43.582;1.470;2023-04-01T19:02:27;6.15;;;1.63;;
65583;SDS011;62116;43.582;1.470;2023-04-01T19:10:07;5.53;;;1.30;;
65583;SDS011;62116;43.582;1.470;2023-04-01T19:15:44;3.75;;;1.30;;
65583;SDS011;62116;43.582;1.470;2023-04-01T19:20:59;4.25;;;1.30;;
65583;SDS011;62116;43.582;1.470;2023-04-01T19:37:32;5.00;;;1.27;;
65583;SDS011;62116;43.582;1.470;2023-04-01T19:40:19;6.63;;;1.27;;
65583;SDS011;62116;43.582;1.470;2023-04-01T19:46:02;4.45;;;1.10;;
65583;SDS011;62116;43.582;1.470;2023-04-01T19:51:31;5.75;;;1.20;;
65583;SDS011;62116;43.582;1.470;2023-04-01T19:56:41;5.78;;;1.30;;
65583;SDS011;62116;43.582;1.470;2023-04-01T20:02:01;4.43;;;1.20;;
65583;SDS011;62116;43.582;1.470;2023-04-01T20:14:57;5.03;;;1.17;;
65583;SDS011;62116;43.582;1.470;2023-04-01T20:17:24;4.65;;;1.13;;
65583;SDS011;62116;43.582;1.470;2023-04-01T20:19:59;5.32;;;1.30;;
65583;SDS011;62116;43.582;1.470;2023-04-01T20:22:30;6.45;;;1.33;;
65583;SDS011;62116;43.582;1.470;2023-04-01T20:25:26;5.43;;;1.60;;
65583;SDS011;62116;43.582;1.470;2023-04-01T20:28:20;5.57;;;1.38;;
65583;SDS011;62116;43.582;1.470;2023-04-01T20:33:54;5.50;;;1.05;;
65583;SDS011;62116;43.582;1.470;2023-04-01T20:42:34;6.25;;;1.27;;
65583;SDS011;62116;43.582;1.470;2023-04-01T20:45:20;8.93;;;1.30;;
65583;SDS011;62116;43.582;1.470;2023-04-01T20:51:06;7.38;;;1.58;;
65583;SDS011;62116;43.582;1.470;2023-04-01T21:07:41;7.22;;;1.83;;
65583;SDS011;62116;43.582;1.470;2023-04-01T21:18:30;10.35;;;2.60;;
65583;SDS011;62116;43.582;1.470;2023-04-01T21:24:34;8.02;;;1.70;;
65583;SDS011;62116;43.582;1.470;2023-04-01T21:29:57;7.43;;;1.80;;
65583;SDS011;62116;43.582;1.470;2023-04-01T21:32:30;8.85;;;2.13;;
65583;SDS011;62116;43.582;1.470;2023-04-01T21:48:27;6.45;;;1.52;;
65583;SDS011;62116;43.582;1.470;2023-04-01T22:12:31;7.55;;;1.30;;
65583;SDS011;62116;43.582;1.470;2023-04-01T22:17:46;9.80;;;1.50;;
65583;SDS011;62116;43.582;1.470;2023-04-01T22:25:42;9.65;;;1.50;;
65583;SDS011;62116;43.582;1.470;2023-04-01T22:28:24;8.30;;;1.27;;
65583;SDS011;62116;43.582;1.470;2023-04-01T22:31:03;6.65;;;1.30;;
65583;SDS011;62116;43.582;1.470;2023-04-01T22:44:30;9.25;;;1.58;;
65583;SDS011;62116;43.582;1.470;2023-04-01T22:47:02;6.35;;;1.10;;
65583;SDS011;62116;43.582;1.470;2023-04-01T22:55:00;14.30;;;1.73;;
65583;SDS011;62116;43.582;1.470;2023-04-01T22:57:35;9.57;;;1.40;;
65583;SDS011;62116;43.582;1.470;2023-04-01T23:00:10;8.13;;;1.42;;
65583;SDS011;62116;43.582;1.470;2023-04-01T23:05:17;5.88;;;1.38;;
65583;SDS011;62116;43.582;1.470;2023-04-01T23:10:51;5.90;;;1.23;;
65583;SDS011;62116;43.582;1.470;2023-04-01T23:13:25;6.75;;;1.20;;
65583;SDS011;62116;43.582;1.470;2023-04-01T23:15:59;7.13;;;1.10;;
65583;SDS011;62116;43.582;1.470;2023-04-01T23:18:30;8.02;;;1.45;;
65583;SDS011;62116;43.582;1.470;2023-04-01T23:24:00;11.10;;;1.35;;
65583;SDS011;62116;43.582;1.470;2023-04-01T23:27:02;7.45;;;1.35;;
65583;SDS011;62116;43.582;1.470;2023-04-01T23:29:35;12.25;;;1.80;;
65583;SDS011;62116;43.582;1.470;2023-04-01T23:32:02;6.45;;;1.10;;
65583;SDS011;62116;43.582;1.470;2023-04-01T23:34:30;11.20;;;1.30;;
65583;SDS011;62116;43.582;1.470;2023-04-01T23:36:58;9.50;;;1.38;;
65583;SDS011;62116;43.582;1.470;2023-04-01T23:39:29;7.13;;;1.30;;
65583;SDS011;62116;43.582;1.470;2023-04-01T23:41:59;6.60;;;1.30;;
65583;SDS011;62116;43.582;1.470;2023-04-01T23:44:27;7.80;;;1.27;;
65583;SDS011;62116;43.582;1.470;2023-04-01T23:46:54;7.18;;;1.20;;
65583;SDS011;62116;43.582;1.470;2023-04-01T23:49:21;8.45;;;1.20;;
65583;SDS011;62116;43.582;1.470;2023-04-01T23:52:02;10.27;;;1.50;;
65583;SDS011;62116;43.582;1.470;2023-04-01T23:54:34;9.43;;;1.10;;
65583;SDS011;62116;43.582;1.470;2023-04-01T23:57:14;10.50;;;1.30;;
65583;SDS011;62116;43.582;1.470;2023-04-01T23:59:43;6.03;;;1.00;;
